モンテレー の空港の天気 - METARとTAF

ヘネラル・マリアノ・エソコベド国際空港 ( MMMY / MTY ) - メキシコ ヌエボ・レオン州モンテレー
飛行場実況気象(Metar)
観測時間01/22 22:43 CST (01/23 04:43 UTC)
風向・風速北北西 3m/s
視程10km以上
天気現象
全天の4割程度の雲 雲底高度 2740m
気温10℃
湿度46%
気圧1023hPa
METARMMMY 230443Z 33005KT 15SM SCT090 10/M01 A3020 RMK 8/070
過去の天気等 Google飛行場航空写真 Wunderground天気予報

過去48時間のMETAR

飛行場予報(TAF)
発表時間: 1/22 22:32 CST (1/23 04:32 UTC)
予報対象時間: 23日0時 CST ~ 24日6時 CST
風向・風速南 3m/s
視程10km以上
なし
23日12時 CST から
風向・風速南南東 6m/s
視程10km以上
全天の8割程度の雲 雲底高度 3,050m
全天の8割程度の雲 雲底高度 7,620m
24日0時 CST から
風向・風速南南東 3m/s
視程10km以上
全天の4割程度の雲 雲底高度 7,620m
24日4時 CST から
風向・風速東 3m/s
視程8,050m
天気現象煙霧
全天の8割程度の雲 雲底高度 610m
TAF MMMY 230432Z 2306/2412 19006KT P6SM SKC TX23/2321Z TN9/2312Z
FM231800 15012KT P6SM BKN100 BKN250
FM240600 15006KT P6SM SCT250
FM241000 09005KT 5SM HZ BKN020